New Windsor, Illinois
Current Conditions -  °F | °C
As of 8:52 PM on Monday 20 Oct 2014 (Local Time) from KMLI Reporting Station
Clear Clear  
Wind Chill:   Ceiling: Unl
Heat Index:   Visibility: 10mi
Dew Point:   Wind: 3mph
Humidity: 83%   Direction: 220°SW
Pressure: 29.99"   Gusts: NA
Location:  41.2°N, 90.47°W
Report Text: KMLI 210152Z 22003KT 10SM CLR 08/06 A2999 RMK AO2 SLP156 T00830056
Loading
Personal Weather Stations






























Interactive Weather Map
Tropical Storm Tracking
New forecast layout! Learn more

10-Day Weather Forecast

Advertisements
Track Severe Weather on mobile